createdAt,value
2023-05-08T00:00:33.929Z,99003.91
2023-05-08T00:02:35.686Z,99006.69
2023-05-08T00:04:37.397Z,99009.19
2023-05-08T00:06:41.367Z,99003.44
2023-05-08T00:08:43.040Z,99008.44
2023-05-08T00:10:47.648Z,99007.06
2023-05-08T00:12:49.344Z,99006.56
2023-05-08T00:14:50.911Z,99006.03
2023-05-08T00:16:52.590Z,99008.53
2023-05-08T00:18:54.951Z,99008.03
2023-05-08T00:20:56.391Z,99010.53
2023-05-08T00:22:59.869Z,99012.25
2023-05-08T00:25:01.692Z,99012.84
2023-05-08T00:27:08.039Z,99004.31
2023-05-08T00:29:09.752Z,99009.91
2023-05-08T00:31:11.960Z,99008.25
2023-05-08T00:33:13.819Z,99013.25
2023-05-08T00:35:18.018Z,99017.69
2023-05-08T00:37:19.573Z,99007.25
2023-05-08T00:39:23.255Z,99016.09
2023-05-08T00:41:24.885Z,99014.19
2023-05-08T00:43:28.368Z,99007.00
2023-05-08T00:45:36.524Z,99016.19
2023-05-08T00:47:38.911Z,99015.09
2023-05-08T00:49:40.967Z,99018.47
2023-05-08T00:51:45.020Z,99019.56
2023-05-08T00:53:46.691Z,99030.91
2023-05-08T00:55:49.296Z,99019.59
2023-05-08T00:57:52.352Z,99017.16
2023-05-08T00:59:55.583Z,99021.31
2023-05-08T01:01:57.124Z,99023.81
2023-05-08T01:03:58.748Z,99030.44
2023-05-08T01:06:00.598Z,99025.78
2023-05-08T01:08:02.650Z,99029.09
2023-05-08T01:10:04.814Z,99025.81
2023-05-08T01:12:20.602Z,99031.63
2023-05-08T01:15:00.579Z,99033.59
2023-05-08T01:17:12.019Z,99033.09
2023-05-08T01:19:35.341Z,99038.03
2023-05-08T01:21:58.516Z,99037.50
2023-05-08T01:24:26.755Z,99041.97
2023-05-08T01:27:06.493Z,99045.28
2023-05-08T01:29:13.662Z,99044.75
2023-05-08T01:31:32.202Z,99040.91
2023-05-08T01:33:38.304Z,99045.31
2023-05-08T01:35:50.701Z,99046.72
2023-05-08T01:38:06.638Z,99042.59
2023-05-08T01:40:17.426Z,99045.34
2023-05-08T01:42:30.604Z,99048.69
2023-05-08T01:44:37.666Z,99039.88
2023-05-08T01:46:39.565Z,99046.78
2023-05-08T01:48:49.407Z,99047.09
2023-05-08T01:50:58.238Z,99044.88
2023-05-08T01:53:10.561Z,99050.97
2023-05-08T01:55:20.498Z,99045.19
2023-05-08T01:57:30.138Z,99051.81
2023-05-08T01:59:33.728Z,99041.06
2023-05-08T02:01:35.793Z,99050.47
2023-05-08T02:03:40.001Z,99056.25
2023-05-08T02:05:43.057Z,99052.09
2023-05-08T02:07:47.674Z,99055.13
2023-05-08T02:09:53.895Z,99057.06
2023-05-08T02:11:56.191Z,99058.47
2023-05-08T02:14:01.652Z,99061.50
2023-05-08T02:16:05.264Z,99070.88
2023-05-08T02:18:09.506Z,99060.41
2023-05-08T02:20:15.134Z,99064.28
2023-05-08T02:22:19.727Z,99061.00
2023-05-08T02:24:22.790Z,99060.16
2023-05-08T02:26:26.382Z,99067.91
2023-05-08T02:28:30.300Z,99069.28
2023-05-08T02:30:34.291Z,99066.78
2023-05-08T02:32:36.022Z,99071.78
2023-05-08T02:34:41.043Z,99068.19
2023-05-08T02:36:49.220Z,99075.91
2023-05-08T02:38:54.225Z,99074.56
2023-05-08T02:41:02.156Z,99080.34
2023-05-08T02:43:05.140Z,99077.03
2023-05-08T02:45:08.191Z,99080.91
2023-05-08T02:47:26.196Z,99070.75
2023-05-08T02:49:33.295Z,99073.50
2023-05-08T02:51:38.584Z,99076.50
2023-05-08T02:53:52.836Z,99073.22
2023-05-08T02:56:03.200Z,99069.94
2023-05-08T02:58:30.691Z,99074.91
2023-05-08T03:00:44.111Z,99071.56
2023-05-08T03:03:00.620Z,99080.97
2023-05-08T03:05:15.964Z,99081.50
2023-05-08T03:07:21.869Z,99081.50
2023-05-08T03:09:26.994Z,99085.94
2023-05-08T03:11:36.887Z,99079.84
2023-05-08T03:13:41.699Z,99092.00
2023-05-08T03:15:55.458Z,99088.69
2023-05-08T03:18:04.007Z,99090.34
2023-05-08T03:20:10.405Z,99084.00
2023-05-08T03:22:15.569Z,99085.38
2023-05-08T03:24:19.917Z,99089.25
2023-05-08T03:26:22.599Z,99084.28
2023-05-08T03:28:26.269Z,99090.63
2023-05-08T03:30:31.391Z,99093.66
2023-05-08T03:32:39.400Z,99092.03
2023-05-08T03:34:44.292Z,99098.63
2023-05-08T03:36:46.466Z,99091.75
2023-05-08T03:38:49.153Z,99093.66
2023-05-08T03:40:50.955Z,99094.78
2023-05-08T03:42:53.179Z,99087.91
2023-05-08T03:44:55.193Z,99092.59
2023-05-08T03:46:59.456Z,99090.13
2023-05-08T03:49:04.706Z,99101.38
2023-05-08T03:51:07.172Z,99101.38
2023-05-08T03:53:11.626Z,99104.44
2023-05-08T03:55:13.607Z,99096.44
2023-05-08T03:57:15.315Z,99090.94
2023-05-08T03:59:29.348Z,99098.09
2023-05-08T04:01:48.732Z,99103.63
2023-05-08T04:04:06.146Z,99099.19
2023-05-08T04:06:16.158Z,99103.06
2023-05-08T04:08:28.245Z,99103.63
2023-05-08T04:10:42.294Z,99101.97
2023-05-08T04:13:12.185Z,99106.63
2023-05-08T04:15:22.617Z,99100.31
2023-05-08T04:17:43.677Z,99107.22
2023-05-08T04:19:50.556Z,99104.47
2023-05-08T04:21:59.427Z,99109.97
2023-05-08T04:24:04.534Z,99104.72
2023-05-08T04:26:07.694Z,99109.13
2023-05-08T04:28:11.351Z,99108.00
2023-05-08T04:30:14.852Z,99111.88
2023-05-08T04:32:17.153Z,99119.03
2023-05-08T04:34:19.154Z,99108.28
2023-05-08T04:36:21.072Z,99116.56
2023-05-08T04:38:22.670Z,99110.22
2023-05-08T04:40:25.196Z,99118.47
2023-05-08T04:42:27.432Z,99115.72
2023-05-08T04:44:32.289Z,99112.97
2023-05-08T04:46:33.969Z,99118.75
2023-05-08T04:48:35.685Z,99114.34
2023-05-08T04:50:38.465Z,99112.44
2023-05-08T04:52:40.701Z,99114.09
2023-05-08T04:54:42.265Z,99118.75
2023-05-08T04:56:44.474Z,99120.69
2023-05-08T04:58:52.313Z,99123.44
2023-05-08T05:00:56.316Z,99130.59
2023-05-08T05:02:58.143Z,99128.94
2023-05-08T05:05:01.285Z,99124.53
2023-05-08T05:07:04.373Z,99133.63
2023-05-08T05:09:08.971Z,99138.88
2023-05-08T05:11:10.749Z,99138.28
2023-05-08T05:13:12.600Z,99144.63
2023-05-08T05:15:14.632Z,99146.00
2023-05-08T05:17:17.977Z,99143.25
2023-05-08T05:19:19.876Z,99144.91
2023-05-08T05:21:21.614Z,99137.75
2023-05-08T05:23:23.862Z,99144.91
2023-05-08T05:25:25.641Z,99149.59
2023-05-08T05:27:28.926Z,99147.66
2023-05-08T05:29:30.885Z,99149.59
2023-05-08T05:31:32.647Z,99148.75
2023-05-08T05:33:34.934Z,99144.63
2023-05-08T05:35:36.522Z,99150.13
2023-05-08T05:37:38.186Z,99142.72
2023-05-08T05:39:40.099Z,99149.03
2023-05-08T05:41:44.188Z,99149.88
2023-05-08T05:43:46.059Z,99160.59
2023-05-08T05:45:48.131Z,99156.75
2023-05-08T05:47:50.876Z,99156.47
2023-05-08T05:49:57.635Z,99157.00
2023-05-08T05:51:59.108Z,99158.69
2023-05-08T05:54:00.635Z,99166.38
2023-05-08T05:56:02.416Z,99169.13
2023-05-08T05:58:05.310Z,99174.34
2023-05-08T06:00:09.143Z,99179.59
2023-05-08T06:02:20.545Z,99176.03
2023-05-08T06:04:22.418Z,99175.72
2023-05-08T06:06:26.804Z,99181.25
2023-05-08T06:08:28.763Z,99174.09
2023-05-08T06:10:31.122Z,99184.81
2023-05-08T06:12:32.912Z,99180.16
2023-05-08T06:14:35.243Z,99182.34
2023-05-08T06:16:36.946Z,99179.03
2023-05-08T06:18:38.463Z,99177.38
2023-05-08T06:20:40.094Z,99181.50
2023-05-08T06:22:41.822Z,99184.53
2023-05-08T06:24:52.906Z,99178.75
2023-05-08T06:26:54.604Z,99179.00
2023-05-08T06:28:57.030Z,99169.09
2023-05-08T06:30:58.796Z,99179.00
2023-05-08T06:33:00.320Z,99177.88
2023-05-08T06:35:01.759Z,99174.28
2023-05-08T06:37:03.149Z,99170.44
2023-05-08T06:39:06.134Z,99178.38
2023-05-08T06:41:07.601Z,99176.75
2023-05-08T06:43:09.141Z,99169.81
2023-05-08T06:45:11.168Z,99174.22
2023-05-08T06:47:12.881Z,99164.00
2023-05-08T06:49:14.549Z,99166.44
2023-05-08T06:51:16.239Z,99164.25
2023-05-08T06:53:18.250Z,99174.13
2023-05-08T06:55:22.405Z,99171.88
2023-05-08T06:57:26.889Z,99170.44
2023-05-08T06:59:29.296Z,99166.88
2023-05-08T07:01:30.773Z,99159.38
2023-05-08T07:03:32.883Z,99168.16
2023-05-08T07:05:34.353Z,99168.66
2023-05-08T07:07:38.288Z,99169.16
2023-05-08T07:09:40.390Z,99168.03
2023-05-08T07:11:42.379Z,99180.69
2023-05-08T07:13:48.819Z,99169.59
2023-05-08T07:15:50.474Z,99167.66
2023-05-08T07:17:56.968Z,99166.53
2023-05-08T07:19:58.638Z,99154.59
2023-05-08T07:22:00.882Z,99164.50
2023-05-08T07:24:02.600Z,99160.88
2023-05-08T07:26:08.141Z,99165.53
2023-05-08T07:28:09.650Z,99169.06
2023-05-08T07:30:11.434Z,99169.31
2023-05-08T07:32:12.918Z,99167.63
2023-05-08T07:34:15.133Z,99169.50
2023-05-08T07:36:16.732Z,99167.00
2023-05-08T07:38:18.295Z,99172.47
2023-05-08T07:40:19.758Z,99171.59
2023-05-08T07:42:21.721Z,99170.72
2023-05-08T07:44:23.482Z,99176.19
2023-05-08T07:46:25.453Z,99168.69
2023-05-08T07:48:27.419Z,99172.22
2023-05-08T07:50:29.254Z,99166.34
2023-05-08T07:52:30.750Z,99163.28
2023-05-08T07:54:32.151Z,99163.22
2023-05-08T07:56:33.820Z,99162.53
2023-05-08T07:58:38.401Z,99161.38
2023-05-08T08:00:40.785Z,99155.78
2023-05-08T08:02:46.537Z,99172.84
2023-05-08T08:04:48.785Z,99158.94
2023-05-08T08:06:50.630Z,99158.59
2023-05-08T08:08:52.082Z,99161.31
2023-05-08T08:10:55.976Z,99165.94
2023-05-08T08:12:57.443Z,99166.69
2023-05-08T08:14:59.071Z,99165.50
2023-05-08T08:17:03.454Z,99169.00
2023-05-08T08:19:07.616Z,99160.63
2023-05-08T08:21:09.152Z,99168.88
2023-05-08T08:23:10.751Z,99166.88
2023-05-08T08:25:12.575Z,99166.50
2023-05-08T08:27:14.600Z,99174.16
2023-05-08T08:29:16.139Z,99170.19
2023-05-08T08:31:19.704Z,99168.69
2023-05-08T08:33:21.539Z,99169.94
2023-05-08T08:35:29.357Z,99156.53
2023-05-08T08:37:30.874Z,99164.44
2023-05-08T08:39:34.262Z,99165.69
2023-05-08T08:41:36.088Z,99173.31
2023-05-08T08:43:43.136Z,99166.56
2023-05-08T08:45:44.627Z,99168.13
2023-05-08T08:47:48.420Z,99166.63
2023-05-08T08:49:51.652Z,99160.19
2023-05-08T08:51:58.677Z,99161.72
2023-05-08T08:54:12.383Z,99160.50
2023-05-08T08:56:15.757Z,99158.47
2023-05-08T08:58:21.187Z,99165.03
2023-05-08T09:00:25.001Z,99159.72
2023-05-08T09:02:28.896Z,99166.28
2023-05-08T09:04:31.753Z,99147.34
2023-05-08T09:06:36.452Z,99155.06
2023-05-08T09:08:38.900Z,99150.03
2023-05-08T09:10:41.230Z,99165.47
2023-05-08T09:12:46.057Z,99155.19
2023-05-08T09:14:48.029Z,99157.03
2023-05-08T09:16:55.497Z,99159.19
2023-05-08T09:18:57.054Z,99162.16
2023-05-08T09:21:01.370Z,99161.56
2023-05-08T09:23:03.578Z,99157.84
2023-05-08T09:25:06.493Z,99158.56
2023-05-08T09:27:21.407Z,99156.03
2023-05-08T09:29:26.802Z,99161.16
2023-05-08T09:31:40.007Z,99164.31
2023-05-08T09:33:44.633Z,99164.22
2023-05-08T09:35:48.573Z,99157.44
2023-05-08T09:37:50.237Z,99160.09
2023-05-08T09:39:51.973Z,99153.59
2023-05-08T09:41:58.914Z,99155.13
2023-05-08T09:44:08.476Z,99148.00
2023-05-08T09:46:28.253Z,99153.13
2023-05-08T09:48:39.379Z,99157.09
2023-05-08T09:50:42.960Z,99161.09
2023-05-08T09:52:50.489Z,99159.56
2023-05-08T09:55:05.325Z,99159.13
2023-05-08T09:57:13.816Z,99160.31
2023-05-08T09:59:34.167Z,99155.97
2023-05-08T10:01:37.059Z,99159.63
2023-05-08T10:03:51.553Z,99159.97
2023-05-08T10:05:53.374Z,99148.09
2023-05-08T10:07:54.946Z,99156.81
2023-05-08T10:10:01.599Z,99152.75
2023-05-08T10:12:03.640Z,99154.75
2023-05-08T10:14:05.339Z,99156.25
2023-05-08T10:16:08.024Z,99155.84
2023-05-08T10:18:12.013Z,99157.03
2023-05-08T10:20:14.756Z,99150.16
2023-05-08T10:22:20.804Z,99149.69
2023-05-08T10:24:33.268Z,99148.91
2023-05-08T10:26:40.897Z,99145.66
2023-05-08T10:28:57.117Z,99149.59
2023-05-08T10:31:03.780Z,99146.31
2023-05-08T10:33:09.936Z,99156.19
2023-05-08T10:35:12.376Z,99154.91
2023-05-08T10:37:14.322Z,99147.53
2023-05-08T10:39:19.344Z,99150.53
2023-05-08T10:41:22.234Z,99152.63
2023-05-08T10:43:25.947Z,99153.16
2023-05-08T10:45:29.920Z,99150.84
2023-05-08T10:47:53.319Z,99148.56
2023-05-08T10:50:34.056Z,99151.81
2023-05-08T10:52:54.834Z,99153.63
2023-05-08T10:55:02.272Z,99149.88
2023-05-08T10:57:12.939Z,99143.63
2023-05-08T10:59:21.057Z,99148.25
2023-05-08T11:01:24.821Z,99148.41
2023-05-08T11:03:32.822Z,99140.22
2023-05-08T11:05:48.500Z,99144.31
2023-05-08T11:07:56.935Z,99140.88
2023-05-08T11:10:13.689Z,99141.03
2023-05-08T11:12:27.824Z,99137.09
2023-05-08T11:14:31.629Z,99145.94
2023-05-08T11:16:59.695Z,99133.97
2023-05-08T11:19:17.687Z,99138.06
2023-05-08T11:21:24.188Z,99141.38
2023-05-08T11:23:27.301Z,99141.03
2023-05-08T11:25:45.549Z,99142.16
2023-05-08T11:27:47.157Z,99136.28
2023-05-08T11:30:18.251Z,99145.28
2023-05-08T11:32:20.422Z,99136.09
2023-05-08T11:34:54.140Z,99137.59
2023-05-08T11:37:02.319Z,99133.66
2023-05-08T11:39:17.129Z,99128.91
2023-05-08T11:41:25.702Z,99141.19
2023-05-08T11:43:33.414Z,99139.53
2023-05-08T11:45:41.278Z,99132.00
2023-05-08T11:47:47.502Z,99138.41
2023-05-08T11:49:49.016Z,99137.59
2023-05-08T11:51:55.424Z,99140.06
2023-05-08T11:53:57.636Z,99132.84
2023-05-08T11:56:00.641Z,99126.44
2023-05-08T11:58:05.007Z,99133.19
2023-05-08T12:00:14.128Z,99135.13
2023-05-08T12:02:15.965Z,99129.88
2023-05-08T12:04:17.902Z,99131.34
2023-05-08T12:06:23.853Z,99134.47
2023-05-08T12:08:26.214Z,99130.38
2023-05-08T12:10:27.866Z,99131.84
2023-05-08T12:12:38.197Z,99138.56
2023-05-08T12:14:42.966Z,99131.38
2023-05-08T12:16:44.448Z,99126.09
2023-05-08T12:18:45.941Z,99130.38
2023-05-08T12:20:58.153Z,99131.53
2023-05-08T12:23:02.711Z,99129.88
2023-05-08T12:25:06.651Z,99132.31
2023-05-08T12:27:13.024Z,99136.28
2023-05-08T12:29:19.622Z,99134.81
2023-05-08T12:31:21.567Z,99129.22
2023-05-08T12:33:23.780Z,99133.63
2023-05-08T12:35:25.880Z,99137.59
2023-05-08T12:37:27.591Z,99136.44
2023-05-08T12:39:29.376Z,99127.56
2023-05-08T12:41:30.901Z,99136.44
2023-05-08T12:43:36.047Z,99136.94
2023-05-08T12:45:42.214Z,99128.25
2023-05-08T12:47:49.640Z,99128.72
2023-05-08T12:49:51.923Z,99133.47
2023-05-08T12:52:04.232Z,99128.72
2023-05-08T12:54:06.038Z,99132.50
2023-05-08T12:56:07.658Z,99134.47
2023-05-08T12:58:15.870Z,99131.50
2023-05-08T13:00:18.660Z,99135.47
2023-05-08T13:02:23.671Z,99131.84
2023-05-08T13:04:25.569Z,99123.78
2023-05-08T13:06:27.303Z,99127.75
2023-05-08T13:08:39.053Z,99126.44
2023-05-08T13:10:48.043Z,99121.69
2023-05-08T13:12:49.611Z,99123.66
2023-05-08T13:14:51.216Z,99115.28
2023-05-08T13:16:53.209Z,99118.09
2023-05-08T13:18:54.890Z,99123.31
2023-05-08T13:20:59.576Z,99113.00
2023-05-08T13:23:07.596Z,99112.34
2023-05-08T13:25:09.310Z,99108.06
2023-05-08T13:27:10.773Z,99105.94
2023-05-08T13:29:12.323Z,99103.47
2023-05-08T13:31:14.090Z,99110.19
2023-05-08T13:33:15.664Z,99098.53
2023-05-08T13:35:21.781Z,99093.31
2023-05-08T13:37:23.383Z,99087.69
2023-05-08T13:39:24.982Z,99086.03
2023-05-08T13:41:26.685Z,99090.78
2023-05-08T13:43:28.425Z,99081.88
2023-05-08T13:45:30.476Z,99085.31
2023-05-08T13:47:34.830Z,99077.56
2023-05-08T13:49:36.485Z,99076.56
2023-05-08T13:51:38.085Z,99081.97
2023-05-08T13:53:39.825Z,99078.16
2023-05-08T13:55:42.253Z,99074.22
2023-05-08T13:57:46.542Z,99072.72
2023-05-08T13:59:48.358Z,99072.38
2023-05-08T14:01:50.087Z,99065.34
2023-05-08T14:03:51.804Z,99071.44
2023-05-08T14:05:53.530Z,99071.44
2023-05-08T14:07:55.385Z,99073.06
2023-05-08T14:09:57.199Z,99073.88
2023-05-08T14:11:58.954Z,99083.56
2023-05-08T14:14:00.602Z,99072.72
2023-05-08T14:16:04.880Z,99079.63
2023-05-08T14:18:06.925Z,99068.78
2023-05-08T14:20:11.586Z,99064.00
2023-05-08T14:22:13.415Z,99063.53
2023-05-08T14:24:14.922Z,99057.94
2023-05-08T14:26:16.650Z,99060.25
2023-05-08T14:28:18.306Z,99051.38
2023-05-08T14:30:19.838Z,99052.22
2023-05-08T14:32:21.660Z,99050.06
2023-05-08T14:34:23.398Z,99050.41
2023-05-08T14:36:24.864Z,99048.75
2023-05-08T14:38:26.370Z,99046.31
2023-05-08T14:40:27.862Z,99041.06
2023-05-08T14:42:33.522Z,99044.19
2023-05-08T14:44:41.245Z,99037.78
2023-05-08T14:46:42.894Z,99038.13
2023-05-08T14:48:44.596Z,99040.09
2023-05-08T14:50:46.036Z,99036.00
2023-05-08T14:52:47.629Z,99032.88
2023-05-08T14:54:53.031Z,99032.06
2023-05-08T14:56:55.023Z,99030.41
2023-05-08T14:58:56.519Z,99037.16
2023-05-08T15:00:58.140Z,99029.94
2023-05-08T15:02:59.804Z,99045.03
2023-05-08T15:05:01.531Z,99043.41
2023-05-08T15:07:05.459Z,99033.41
2023-05-08T15:09:09.947Z,99037.69
2023-05-08T15:11:11.477Z,99041.63
2023-05-08T15:13:20.199Z,99046.72
2023-05-08T15:15:22.070Z,99044.63
2023-05-08T15:17:23.796Z,99031.81
2023-05-08T15:19:25.386Z,99042.81
2023-05-08T15:21:27.607Z,99038.06
2023-05-08T15:23:29.128Z,99045.47
2023-05-08T15:25:30.765Z,99041.03
2023-05-08T15:27:32.785Z,99041.69
2023-05-08T15:29:38.714Z,99043.53
2023-05-08T15:31:40.266Z,99037.94
2023-05-08T15:33:45.891Z,99034.69
2023-05-08T15:35:47.438Z,99037.00
2023-05-08T15:37:51.231Z,99039.63
2023-05-08T15:39:52.726Z,99036.34
2023-05-08T15:41:54.325Z,99039.78
2023-05-08T15:44:04.989Z,99036.84
2023-05-08T15:46:06.474Z,99041.63
2023-05-08T15:48:08.080Z,99046.69
2023-05-08T15:50:09.930Z,99035.41
2023-05-08T15:52:18.635Z,99035.41
2023-05-08T15:54:20.656Z,99033.25
2023-05-08T15:56:31.288Z,99039.00
2023-05-08T15:58:34.680Z,99039.81
2023-05-08T16:00:43.898Z,99033.75
2023-05-08T16:02:47.674Z,99034.72
2023-05-08T16:04:49.489Z,99025.88
2023-05-08T16:06:53.899Z,99038.38
2023-05-08T16:08:55.502Z,99031.50
2023-05-08T16:10:56.969Z,99037.72
2023-05-08T16:13:00.451Z,99039.53
2023-05-08T16:15:04.915Z,99038.22
2023-05-08T16:17:10.347Z,99031.69
2023-05-08T16:19:15.803Z,99034.63
2023-05-08T16:21:17.621Z,99035.78
2023-05-08T16:23:22.314Z,99033.63
2023-05-08T16:25:27.782Z,99027.09
2023-05-08T16:27:32.431Z,99031.34
2023-05-08T16:29:35.255Z,99027.59
2023-05-08T16:31:36.984Z,99027.91
2023-05-08T16:33:38.674Z,99038.56
2023-05-08T16:35:42.945Z,99029.25
2023-05-08T16:37:47.491Z,99027.94
2023-05-08T16:39:48.936Z,99033.31
2023-05-08T16:41:50.378Z,99030.03
2023-05-08T16:43:52.115Z,99033.13
2023-05-08T16:45:53.695Z,99031.03
2023-05-08T16:47:57.987Z,99035.94
2023-05-08T16:49:59.974Z,99030.34
2023-05-08T16:52:04.394Z,99041.00
2023-05-08T16:54:06.360Z,99044.44
2023-05-08T16:56:10.599Z,99051.31
2023-05-08T16:58:12.127Z,99045.41
2023-05-08T17:00:14.211Z,99053.91
2023-05-08T17:02:18.922Z,99054.56
2023-05-08T17:04:20.718Z,99050.78
2023-05-08T17:06:24.124Z,99054.22
2023-05-08T17:08:25.567Z,99055.50
2023-05-08T17:10:27.361Z,99057.31
2023-05-08T17:12:31.901Z,99054.19
2023-05-08T17:14:33.692Z,99056.28
2023-05-08T17:16:35.285Z,99055.91
2023-05-08T17:18:36.837Z,99062.47
2023-05-08T17:20:42.249Z,99051.78
2023-05-08T17:22:47.654Z,99056.34
2023-05-08T17:24:49.132Z,99050.09
2023-05-08T17:26:50.639Z,99056.31
2023-05-08T17:28:52.169Z,99060.88
2023-05-08T17:30:56.854Z,99065.41
2023-05-08T17:32:58.439Z,99060.50
2023-05-08T17:34:59.907Z,99055.06
2023-05-08T17:37:01.491Z,99070.44
2023-05-08T17:39:03.015Z,99069.09
2023-05-08T17:41:04.469Z,99062.06
2023-05-08T17:43:09.271Z,99069.38
2023-05-08T17:45:11.133Z,99064.78
2023-05-08T17:47:15.557Z,99076.53
2023-05-08T17:49:19.275Z,99073.59
2023-05-08T17:51:21.131Z,99077.59
2023-05-08T17:53:22.751Z,99072.16
2023-05-08T17:55:27.342Z,99076.41
2023-05-08T17:57:28.746Z,99072.63
2023-05-08T17:59:30.428Z,99074.19
2023-05-08T18:01:32.095Z,99076.28
2023-05-08T18:03:33.749Z,99079.38
2023-05-08T18:05:35.232Z,99081.63
2023-05-08T18:07:36.836Z,99085.69
2023-05-08T18:09:38.236Z,99086.63
2023-05-08T18:11:41.669Z,99083.66
2023-05-08T18:13:43.533Z,99087.06
2023-05-08T18:15:47.802Z,99085.53
2023-05-08T18:17:49.355Z,99089.78
2023-05-08T18:19:51.020Z,99084.00
2023-05-08T18:21:52.726Z,99091.63
2023-05-08T18:23:54.517Z,99089.19
2023-05-08T18:25:57.763Z,99084.88
2023-05-08T18:28:00.474Z,99102.72
2023-05-08T18:30:02.019Z,99100.88
2023-05-08T18:32:06.235Z,99095.16
2023-05-08T18:34:07.893Z,99099.66
2023-05-08T18:36:09.424Z,99101.44
2023-05-08T18:38:10.981Z,99094.53
2023-05-08T18:40:13.048Z,99101.03
2023-05-08T18:42:14.813Z,99094.94
2023-05-08T18:44:18.481Z,99104.19
2023-05-08T18:46:28.885Z,99086.53
2023-05-08T18:48:30.584Z,99099.91
2023-05-08T18:50:32.106Z,99098.56
2023-05-08T18:52:34.183Z,99098.69
2023-05-08T18:54:35.729Z,99099.28
2023-05-08T18:56:39.418Z,99105.94
2023-05-08T18:58:41.119Z,99105.75
2023-05-08T19:00:42.645Z,99105.53
2023-05-08T19:02:44.210Z,99107.81
2023-05-08T19:04:46.252Z,99102.88
2023-05-08T19:06:49.007Z,99110.69
2023-05-08T19:08:56.320Z,99107.69
2023-05-08T19:10:57.874Z,99111.06
2023-05-08T19:13:02.239Z,99120.53
2023-05-08T19:15:03.996Z,99110.38
2023-05-08T19:17:05.529Z,99121.75
2023-05-08T19:19:07.062Z,99125.09
2023-05-08T19:21:08.586Z,99120.97
2023-05-08T19:23:10.231Z,99114.41
2023-05-08T19:25:12.602Z,99116.69
2023-05-08T19:27:14.070Z,99117.28
2023-05-08T19:29:15.808Z,99119.53
2023-05-08T19:31:17.383Z,99122.91
2023-05-08T19:33:23.323Z,99120.75
2023-05-08T19:35:27.353Z,99120.22
2023-05-08T19:37:29.320Z,99123.31
2023-05-08T19:39:32.575Z,99116.13
2023-05-08T19:41:34.317Z,99122.25
2023-05-08T19:43:39.567Z,99114.56
2023-05-08T19:45:41.031Z,99117.63
2023-05-08T19:47:51.808Z,99109.94
2023-05-08T19:49:54.181Z,99116.91
2023-05-08T19:51:55.679Z,99118.34
2023-05-08T19:53:59.739Z,99117.50
2023-05-08T19:56:01.824Z,99109.50
2023-05-08T19:58:03.329Z,99111.75
2023-05-08T20:00:06.274Z,99116.75
2023-05-08T20:02:07.938Z,99114.31
2023-05-08T20:04:09.803Z,99120.44
2023-05-08T20:06:11.435Z,99119.09
2023-05-08T20:08:14.536Z,99119.41
2023-05-08T20:10:18.820Z,99114.16
2023-05-08T20:12:22.809Z,99113.66
2023-05-08T20:14:27.028Z,99112.81
2023-05-08T20:16:28.544Z,99114.25
2023-05-08T20:18:30.063Z,99110.97
2023-05-08T20:20:32.031Z,99108.19
2023-05-08T20:22:33.537Z,99114.03
2023-05-08T20:24:41.155Z,99109.41
2023-05-08T20:26:47.125Z,99110.53
2023-05-08T20:28:52.019Z,99108.88
2023-05-08T20:30:53.818Z,99112.25
2023-05-08T20:32:55.332Z,99112.25
2023-05-08T20:34:56.888Z,99117.56
2023-05-08T20:36:59.199Z,99110.69
2023-05-08T20:39:00.782Z,99108.22
2023-05-08T20:41:05.425Z,99109.63
2023-05-08T20:43:12.365Z,99103.25
2023-05-08T20:45:14.078Z,99104.69
2023-05-08T20:47:15.709Z,99101.38
2023-05-08T20:49:17.320Z,99101.38
2023-05-08T20:51:18.747Z,99107.53
2023-05-08T20:53:20.295Z,99095.09
2023-05-08T20:55:21.968Z,99095.38
2023-05-08T20:57:23.786Z,99089.34
2023-05-08T20:59:27.743Z,99093.25
2023-05-08T21:01:29.392Z,99091.59
2023-05-08T21:03:39.700Z,99088.28
2023-05-08T21:05:41.201Z,99089.72
2023-05-08T21:07:43.038Z,99086.44
2023-05-08T21:09:44.692Z,99085.59
2023-05-08T21:11:46.241Z,99086.72
2023-05-08T21:13:47.938Z,99083.44
2023-05-08T21:15:52.822Z,99081.78
2023-05-08T21:17:54.631Z,99082.91
2023-05-08T21:19:58.226Z,99076.03
2023-05-08T21:22:19.515Z,99081.03
2023-05-08T21:24:23.824Z,99069.16
2023-05-08T21:26:28.062Z,99072.50
2023-05-08T21:28:29.797Z,99076.38
2023-05-08T21:30:31.332Z,99066.47
2023-05-08T21:32:33.019Z,99062.03
2023-05-08T21:34:35.084Z,99065.13
2023-05-08T21:36:36.629Z,99063.44
2023-05-08T21:38:38.050Z,99053.81
2023-05-08T21:40:39.676Z,99063.25
2023-05-08T21:42:49.664Z,99053.88
2023-05-08T21:44:54.580Z,99061.34
2023-05-08T21:46:56.188Z,99053.69
2023-05-08T21:48:57.677Z,99056.72
2023-05-08T21:51:02.458Z,99056.72
2023-05-08T21:53:04.326Z,99057.31
2023-05-08T21:55:08.572Z,99047.38
2023-05-08T21:57:10.132Z,99055.16
2023-05-08T21:59:11.584Z,99055.16
2023-05-08T22:01:13.364Z,99054.63
2023-05-08T22:03:17.921Z,99054.09
2023-05-08T22:05:19.629Z,99054.41
2023-05-08T22:07:21.496Z,99050.81
2023-05-08T22:09:23.030Z,99053.06
2023-05-08T22:11:25.079Z,99054.16
2023-05-08T22:13:26.594Z,99054.47
2023-05-08T22:15:30.601Z,99055.56
2023-05-08T22:17:32.702Z,99055.88
2023-05-08T22:19:37.185Z,99054.22
2023-05-08T22:21:38.713Z,99049.84
2023-05-08T22:23:40.281Z,99054.81
2023-05-08T22:25:43.588Z,99053.19
2023-05-08T22:27:45.387Z,99057.06
2023-05-08T22:29:46.873Z,99062.91
2023-05-08T22:31:48.398Z,99060.41
2023-05-08T22:33:50.001Z,99058.78
2023-05-08T22:35:51.465Z,99070.09
2023-05-08T22:37:59.231Z,99062.63
2023-05-08T22:40:00.732Z,99062.09
2023-05-08T22:42:05.261Z,99062.94
2023-05-08T22:44:07.552Z,99054.09
2023-05-08T22:46:09.165Z,99056.06
2023-05-08T22:48:11.101Z,99057.16
2023-05-08T22:50:12.614Z,99055.50
2023-05-08T22:52:14.152Z,99059.41
2023-05-08T22:54:15.797Z,99052.22
2023-05-08T22:56:21.065Z,99048.63
2023-05-08T22:58:24.973Z,99047.28
2023-05-08T23:00:26.584Z,99044.50
2023-05-08T23:02:32.931Z,99044.00
2023-05-08T23:04:34.447Z,99045.13
2023-05-08T23:06:36.526Z,99046.22
2023-05-08T23:08:38.212Z,99036.28
2023-05-08T23:10:40.315Z,99037.94
2023-05-08T23:12:43.793Z,99030.22
2023-05-08T23:14:45.583Z,99031.06
2023-05-08T23:16:47.152Z,99025.84
2023-05-08T23:18:48.857Z,99026.94
2023-05-08T23:20:50.330Z,99030.03
2023-05-08T23:22:51.736Z,99028.34
2023-05-08T23:24:53.254Z,99025.91
2023-05-08T23:26:54.809Z,99023.41
2023-05-08T23:28:56.283Z,99024.25
2023-05-08T23:30:58.019Z,99020.13
2023-05-08T23:33:01.916Z,99018.47
2023-05-08T23:35:11.163Z,99015.72
2023-05-08T23:37:12.704Z,99025.97
2023-05-08T23:39:14.270Z,99021.84
2023-05-08T23:41:15.692Z,99019.38
2023-05-08T23:43:17.544Z,99010.84
2023-05-08T23:45:19.078Z,99004.78
2023-05-08T23:47:22.367Z,99008.38
2023-05-08T23:49:23.849Z,99002.63
2023-05-08T23:51:25.414Z,99002.91
2023-05-08T23:53:26.851Z,98993.78
2023-05-08T23:55:31.184Z,99001.28
2023-05-08T23:57:42.904Z,99001.56
2023-05-08T23:59:44.372Z,99002.13
